PHPUY LIPK-LFMQ
Flight info
| Callsign | PHPUY |
|---|---|
| Flight time | 1h 23m |
| Altitude | 29000 |
| Route | EKTUK DCT TORTU DCT STP DCT CUERS G7 LANKO |
| Aircraft | TBM8/L-SDFGRWY/S |
Departure
| Time | 2026-05-05 08:58 |
|---|---|
| Airport | Forlì-Luigi Ridolfi International Airport (LIPK) |
Arrival
| Time | 2026-05-05 10:21 |
|---|---|
| Airport | Le Castellet Airport (LFMQ) |
| Time | Latitude | Longitude | Altitude | Speed | Heading |
|---|---|---|---|---|---|
| 2026-05-05 08:35 | 44.19651 | 12.07231 | 107 ft | 0 kts | 297° |
| 2026-05-05 08:52 | 44.19652 | 12.07224 | 107 ft | 3 kts | 279° |
| 2026-05-05 08:52 | 44.19635 | 12.07187 | 107 ft | 6 kts | 192° |
| 2026-05-05 08:52 | 44.19585 | 12.07290 | 107 ft | 21 kts | 118° |
| 2026-05-05 08:53 | 44.19521 | 12.07439 | 107 ft | 10 kts | 137° |
| 2026-05-05 08:53 | 44.19469 | 12.07522 | 107 ft | 6 kts | 149° |
| 2026-05-05 08:53 | 44.19464 | 12.07524 | 107 ft | 0 kts | 168° |
| 2026-05-05 08:56 | 44.19443 | 12.07535 | 107 ft | 8 kts | 142° |
| 2026-05-05 08:56 | 44.19368 | 12.07587 | 107 ft | 13 kts | 188° |
| 2026-05-05 08:56 | 44.19306 | 12.07568 | 107 ft | 9 kts | 277° |
| 2026-05-05 08:56 | 44.19313 | 12.07549 | 107 ft | 0 kts | 296° |
| 2026-05-05 08:57 | 44.19345 | 12.07460 | 108 ft | 35 kts | 296° |
| 2026-05-05 08:57 | 44.19540 | 12.06928 | 109 ft | 89 kts | 297° |
| 2026-05-05 08:57 | 44.19864 | 12.06012 | 259 ft | 115 kts | 295° |
| 2026-05-05 08:58 | 44.20241 | 12.04957 | 624 ft | 127 kts | 294° |
| 2026-05-05 08:58 | 44.20265 | 12.03697 | 1049 ft | 138 kts | 257° |
| 2026-05-05 08:58 | 44.20012 | 12.02331 | 1488 ft | 151 kts | 253° |
| 2026-05-05 08:58 | 44.19705 | 12.00872 | 1898 ft | 161 kts | 251° |
| 2026-05-05 08:59 | 44.19388 | 11.99370 | 2338 ft | 162 kts | 243° |
| 2026-05-05 08:59 | 44.18566 | 11.98380 | 2759 ft | 161 kts | 196° |
| 2026-05-05 08:59 | 44.17448 | 11.98218 | 3151 ft | 162 kts | 191° |
| 2026-05-05 08:59 | 44.16370 | 11.97785 | 3580 ft | 160 kts | 200° |
| 2026-05-05 09:00 | 44.15318 | 11.97280 | 4060 ft | 161 kts | 201° |
| 2026-05-05 09:00 | 44.14270 | 11.96763 | 4704 ft | 158 kts | 201° |
| 2026-05-05 09:00 | 44.13241 | 11.96265 | 5445 ft | 157 kts | 203° |
| 2026-05-05 09:00 | 44.12196 | 11.95746 | 6166 ft | 161 kts | 204° |
| 2026-05-05 09:01 | 44.11133 | 11.95218 | 6897 ft | 165 kts | 205° |
| 2026-05-05 09:01 | 44.10032 | 11.94692 | 7562 ft | 170 kts | 203° |
| 2026-05-05 09:01 | 44.08899 | 11.94132 | 8190 ft | 175 kts | 204° |
| 2026-05-05 09:01 | 44.07754 | 11.93555 | 8776 ft | 177 kts | 204° |
| 2026-05-05 09:02 | 44.06604 | 11.92996 | 9370 ft | 178 kts | 202° |
| 2026-05-05 09:02 | 44.05430 | 11.92426 | 9946 ft | 181 kts | 202° |
| 2026-05-05 09:02 | 44.04257 | 11.91760 | 10406 ft | 182 kts | 214° |
| 2026-05-05 09:02 | 44.03370 | 11.90534 | 10883 ft | 181 kts | 235° |
| 2026-05-05 09:03 | 44.02884 | 11.88915 | 11263 ft | 184 kts | 253° |
| 2026-05-05 09:03 | 44.02550 | 11.87191 | 11620 ft | 185 kts | 251° |
| 2026-05-05 09:03 | 44.02189 | 11.85465 | 11979 ft | 187 kts | 251° |
| 2026-05-05 09:03 | 44.01834 | 11.83726 | 12343 ft | 188 kts | 252° |
| 2026-05-05 09:04 | 44.01478 | 11.81972 | 12700 ft | 189 kts | 252° |
| 2026-05-05 09:04 | 44.01117 | 11.80207 | 13056 ft | 191 kts | 252° |
| 2026-05-05 09:04 | 44.00753 | 11.78429 | 13421 ft | 192 kts | 252° |
| 2026-05-05 09:04 | 44.00388 | 11.76640 | 13916 ft | 192 kts | 250° |
| 2026-05-05 09:05 | 44.00019 | 11.74869 | 14486 ft | 191 kts | 252° |
| 2026-05-05 09:05 | 43.99666 | 11.73090 | 14998 ft | 191 kts | 251° |
| 2026-05-05 09:05 | 43.99295 | 11.71307 | 15397 ft | 194 kts | 251° |
| 2026-05-05 09:05 | 43.98919 | 11.69493 | 15714 ft | 196 kts | 252° |
| 2026-05-05 09:06 | 43.98544 | 11.67669 | 16073 ft | 196 kts | 251° |
| 2026-05-05 09:06 | 43.98168 | 11.65842 | 16419 ft | 197 kts | 251° |
| 2026-05-05 09:06 | 43.97790 | 11.64005 | 16749 ft | 198 kts | 251° |
| 2026-05-05 09:06 | 43.97412 | 11.62155 | 17057 ft | 200 kts | 251° |
| 2026-05-05 09:07 | 43.97025 | 11.60294 | 17367 ft | 201 kts | 251° |
| 2026-05-05 09:07 | 43.96639 | 11.58424 | 17683 ft | 202 kts | 251° |
| 2026-05-05 09:07 | 43.96252 | 11.56543 | 18016 ft | 203 kts | 251° |
| 2026-05-05 09:07 | 43.95858 | 11.54649 | 18323 ft | 205 kts | 251° |
| 2026-05-05 09:08 | 43.95465 | 11.52743 | 18576 ft | 206 kts | 251° |
| 2026-05-05 09:08 | 43.95067 | 11.50830 | 18857 ft | 207 kts | 251° |
| 2026-05-05 09:08 | 43.94673 | 11.48934 | 19121 ft | 208 kts | 251° |
| 2026-05-05 09:08 | 43.94273 | 11.47002 | 19394 ft | 209 kts | 251° |
| 2026-05-05 09:09 | 43.93869 | 11.45062 | 19673 ft | 210 kts | 251° |
| 2026-05-05 09:09 | 43.93463 | 11.43109 | 19939 ft | 211 kts | 251° |
| 2026-05-05 09:09 | 43.93054 | 11.41149 | 20213 ft | 212 kts | 251° |
| 2026-05-05 09:09 | 43.92645 | 11.39184 | 20483 ft | 212 kts | 250° |
| 2026-05-05 09:10 | 43.92233 | 11.37211 | 20730 ft | 214 kts | 250° |
| 2026-05-05 09:10 | 43.91819 | 11.35225 | 20989 ft | 215 kts | 250° |
| 2026-05-05 09:10 | 43.91401 | 11.33230 | 21247 ft | 216 kts | 250° |
| 2026-05-05 09:10 | 43.90983 | 11.31231 | 21483 ft | 216 kts | 250° |
| 2026-05-05 09:11 | 43.90563 | 11.29220 | 21739 ft | 218 kts | 250° |
| 2026-05-05 09:11 | 43.90140 | 11.27208 | 22016 ft | 218 kts | 250° |
| 2026-05-05 09:11 | 43.89716 | 11.25192 | 22265 ft | 218 kts | 250° |
| 2026-05-05 09:11 | 43.89292 | 11.23171 | 22442 ft | 219 kts | 250° |
| 2026-05-05 09:12 | 43.88864 | 11.21134 | 22682 ft | 220 kts | 250° |
| 2026-05-05 09:12 | 43.88433 | 11.19093 | 22928 ft | 221 kts | 250° |
| 2026-05-05 09:12 | 43.88003 | 11.17048 | 23170 ft | 222 kts | 250° |
| 2026-05-05 09:12 | 43.87567 | 11.14991 | 23381 ft | 224 kts | 250° |
| 2026-05-05 09:13 | 43.87130 | 11.12917 | 23634 ft | 223 kts | 250° |
| 2026-05-05 09:13 | 43.86696 | 11.10859 | 23854 ft | 223 kts | 250° |
| 2026-05-05 09:13 | 43.86258 | 11.08793 | 24052 ft | 224 kts | 250° |
| 2026-05-05 09:13 | 43.85827 | 11.06753 | 24251 ft | 224 kts | 250° |
| 2026-05-05 09:14 | 43.85386 | 11.04679 | 24455 ft | 225 kts | 250° |
| 2026-05-05 09:14 | 43.84945 | 11.02598 | 24684 ft | 225 kts | 251° |
| 2026-05-05 09:14 | 43.84502 | 11.00513 | 24917 ft | 226 kts | 251° |
| 2026-05-05 09:14 | 43.84057 | 10.98421 | 25118 ft | 227 kts | 251° |
| 2026-05-05 09:15 | 43.83610 | 10.96320 | 25323 ft | 227 kts | 251° |
| 2026-05-05 09:15 | 43.83162 | 10.94222 | 25532 ft | 228 kts | 251° |
| 2026-05-05 09:15 | 43.82713 | 10.92114 | 25748 ft | 228 kts | 251° |
| 2026-05-05 09:15 | 43.82263 | 10.90001 | 25956 ft | 229 kts | 251° |
| 2026-05-05 09:16 | 43.81810 | 10.87885 | 26147 ft | 230 kts | 251° |
| 2026-05-05 09:16 | 43.81355 | 10.85761 | 26333 ft | 230 kts | 251° |
| 2026-05-05 09:16 | 43.80899 | 10.83631 | 26510 ft | 231 kts | 251° |
| 2026-05-05 09:16 | 43.80596 | 10.82219 | 26627 ft | 231 kts | 251° |
| 2026-05-05 09:17 | 43.80138 | 10.80079 | 26799 ft | 232 kts | 251° |
| 2026-05-05 09:17 | 43.79678 | 10.77939 | 26965 ft | 232 kts | 251° |
| 2026-05-05 09:17 | 43.79213 | 10.75777 | 27008 ft | 238 kts | 251° |
| 2026-05-05 09:17 | 43.78735 | 10.73555 | 27010 ft | 244 kts | 251° |
| 2026-05-05 09:18 | 43.78244 | 10.71279 | 27011 ft | 250 kts | 251° |
| 2026-05-05 09:18 | 43.77743 | 10.68954 | 27014 ft | 254 kts | 251° |
| 2026-05-05 09:18 | 43.77235 | 10.66591 | 27014 ft | 258 kts | 251° |
| 2026-05-05 09:18 | 43.76716 | 10.64196 | 27013 ft | 262 kts | 251° |
| 2026-05-05 09:19 | 43.76190 | 10.61770 | 27009 ft | 265 kts | 251° |
| 2026-05-05 09:19 | 43.75658 | 10.59321 | 27008 ft | 267 kts | 251° |
| 2026-05-05 09:19 | 43.75124 | 10.56854 | 27015 ft | 269 kts | 252° |
| 2026-05-05 09:19 | 43.74584 | 10.54369 | 27006 ft | 270 kts | 251° |
| 2026-05-05 09:20 | 43.74040 | 10.51869 | 26988 ft | 273 kts | 252° |
| 2026-05-05 09:20 | 43.73492 | 10.49342 | 26989 ft | 275 kts | 252° |
| 2026-05-05 09:20 | 43.72938 | 10.46804 | 26988 ft | 276 kts | 252° |
| 2026-05-05 09:20 | 43.72384 | 10.44263 | 26988 ft | 276 kts | 252° |
| 2026-05-05 09:21 | 43.71829 | 10.41722 | 26986 ft | 276 kts | 252° |
| 2026-05-05 09:21 | 43.71274 | 10.39187 | 26986 ft | 276 kts | 252° |
| 2026-05-05 09:21 | 43.70719 | 10.36654 | 26986 ft | 275 kts | 252° |
| 2026-05-05 09:21 | 43.70165 | 10.34120 | 26986 ft | 275 kts | 252° |
| 2026-05-05 09:22 | 43.69609 | 10.31593 | 26986 ft | 275 kts | 252° |
| 2026-05-05 09:22 | 43.69054 | 10.29066 | 26986 ft | 275 kts | 252° |
| 2026-05-05 09:22 | 43.68504 | 10.26573 | 26974 ft | 275 kts | 252° |
| 2026-05-05 09:22 | 43.67948 | 10.24045 | 26974 ft | 275 kts | 252° |
| 2026-05-05 09:23 | 43.67391 | 10.21523 | 26976 ft | 275 kts | 252° |
| 2026-05-05 09:23 | 43.66834 | 10.18999 | 26989 ft | 275 kts | 252° |
| 2026-05-05 09:23 | 43.66276 | 10.16477 | 26990 ft | 274 kts | 251° |
| 2026-05-05 09:23 | 43.65719 | 10.13960 | 26990 ft | 274 kts | 251° |
| 2026-05-05 09:24 | 43.65161 | 10.11446 | 26984 ft | 274 kts | 251° |
| 2026-05-05 09:24 | 43.64604 | 10.08931 | 26985 ft | 274 kts | 251° |
| 2026-05-05 09:24 | 43.64047 | 10.06420 | 26984 ft | 274 kts | 251° |
| 2026-05-05 09:24 | 43.63487 | 10.03910 | 26984 ft | 273 kts | 251° |
| 2026-05-05 09:25 | 43.62928 | 10.01402 | 26981 ft | 273 kts | 251° |
| 2026-05-05 09:25 | 43.62371 | 9.98897 | 26980 ft | 273 kts | 251° |
| 2026-05-05 09:25 | 43.61809 | 9.96391 | 26974 ft | 273 kts | 251° |
| 2026-05-05 09:25 | 43.61252 | 9.93885 | 26976 ft | 273 kts | 251° |
| 2026-05-05 09:26 | 43.60693 | 9.91380 | 26976 ft | 273 kts | 251° |
| 2026-05-05 09:26 | 43.60130 | 9.88876 | 26978 ft | 273 kts | 251° |
| 2026-05-05 09:26 | 43.59569 | 9.86374 | 26963 ft | 273 kts | 252° |
| 2026-05-05 09:26 | 43.59010 | 9.83878 | 26964 ft | 272 kts | 252° |
| 2026-05-05 09:27 | 43.58451 | 9.81391 | 26975 ft | 271 kts | 251° |
| 2026-05-05 09:27 | 43.57892 | 9.78912 | 26973 ft | 270 kts | 251° |
| 2026-05-05 09:27 | 43.57334 | 9.76437 | 26974 ft | 270 kts | 251° |
| 2026-05-05 09:27 | 43.56777 | 9.73967 | 26975 ft | 269 kts | 251° |
| 2026-05-05 09:28 | 43.56228 | 9.71535 | 26973 ft | 269 kts | 251° |
| 2026-05-05 09:28 | 43.55673 | 9.69078 | 26972 ft | 268 kts | 251° |
| 2026-05-05 09:28 | 43.55117 | 9.66623 | 26967 ft | 268 kts | 251° |
| 2026-05-05 09:28 | 43.54562 | 9.64171 | 26968 ft | 268 kts | 251° |
| 2026-05-05 09:29 | 43.54005 | 9.61714 | 26975 ft | 269 kts | 251° |
| 2026-05-05 09:29 | 43.53445 | 9.59247 | 26973 ft | 270 kts | 251° |
| 2026-05-05 09:29 | 43.52882 | 9.56777 | 26972 ft | 270 kts | 251° |
| 2026-05-05 09:29 | 43.52321 | 9.54305 | 26971 ft | 270 kts | 251° |
| 2026-05-05 09:30 | 43.51759 | 9.51842 | 26966 ft | 269 kts | 251° |
| 2026-05-05 09:30 | 43.51199 | 9.49383 | 26965 ft | 269 kts | 251° |
| 2026-05-05 09:30 | 43.50638 | 9.46928 | 26965 ft | 268 kts | 251° |
| 2026-05-05 09:30 | 43.50078 | 9.44476 | 26970 ft | 269 kts | 251° |
| 2026-05-05 09:31 | 43.49515 | 9.42022 | 26970 ft | 268 kts | 251° |
| 2026-05-05 09:31 | 43.48955 | 9.39578 | 26969 ft | 268 kts | 251° |
| 2026-05-05 09:31 | 43.48395 | 9.37136 | 26969 ft | 267 kts | 251° |
| 2026-05-05 09:31 | 43.47836 | 9.34700 | 26969 ft | 267 kts | 251° |
| 2026-05-05 09:32 | 43.47276 | 9.32264 | 26966 ft | 267 kts | 251° |
| 2026-05-05 09:32 | 43.46716 | 9.29829 | 26965 ft | 267 kts | 251° |
| 2026-05-05 09:32 | 43.46155 | 9.27396 | 26965 ft | 266 kts | 251° |
| 2026-05-05 09:32 | 43.45595 | 9.24968 | 26946 ft | 266 kts | 251° |
| 2026-05-05 09:33 | 43.45033 | 9.22540 | 26958 ft | 266 kts | 251° |
| 2026-05-05 09:33 | 43.44473 | 9.20109 | 26957 ft | 266 kts | 251° |
| 2026-05-05 09:33 | 43.43920 | 9.17716 | 26958 ft | 266 kts | 251° |
| 2026-05-05 09:33 | 43.43357 | 9.15289 | 26959 ft | 266 kts | 251° |
| 2026-05-05 09:34 | 43.42794 | 9.12862 | 26958 ft | 267 kts | 251° |
| 2026-05-05 09:34 | 43.42228 | 9.10431 | 26955 ft | 267 kts | 251° |
| 2026-05-05 09:34 | 43.41665 | 9.07999 | 26970 ft | 267 kts | 251° |
| 2026-05-05 09:34 | 43.41100 | 9.05575 | 26971 ft | 266 kts | 251° |
| 2026-05-05 09:35 | 43.40537 | 9.03155 | 26967 ft | 266 kts | 251° |
| 2026-05-05 09:35 | 43.39410 | 8.98326 | 26969 ft | 265 kts | 251° |
| 2026-05-05 09:35 | 43.38870 | 8.95907 | 26965 ft | 265 kts | 255° |
| 2026-05-05 09:36 | 43.38681 | 8.93381 | 26967 ft | 267 kts | 263° |
| 2026-05-05 09:36 | 43.38534 | 8.90842 | 26969 ft | 266 kts | 262° |
| 2026-05-05 09:36 | 43.38364 | 8.88308 | 26969 ft | 266 kts | 262° |
| 2026-05-05 09:36 | 43.38205 | 8.85772 | 26969 ft | 266 kts | 262° |
| 2026-05-05 09:37 | 43.38050 | 8.83236 | 26964 ft | 266 kts | 262° |
| 2026-05-05 09:37 | 43.37891 | 8.80704 | 26964 ft | 266 kts | 262° |
| 2026-05-05 09:37 | 43.37733 | 8.78174 | 26964 ft | 266 kts | 262° |
| 2026-05-05 09:37 | 43.37572 | 8.75642 | 26964 ft | 266 kts | 262° |
| 2026-05-05 09:38 | 43.37413 | 8.73111 | 26968 ft | 266 kts | 262° |
| 2026-05-05 09:38 | 43.37257 | 8.70583 | 26972 ft | 266 kts | 262° |
| 2026-05-05 09:38 | 43.37094 | 8.68051 | 26973 ft | 266 kts | 262° |
| 2026-05-05 09:38 | 43.36932 | 8.65522 | 26973 ft | 265 kts | 262° |
| 2026-05-05 09:39 | 43.36770 | 8.63000 | 26970 ft | 265 kts | 262° |
| 2026-05-05 09:39 | 43.36605 | 8.60476 | 26970 ft | 265 kts | 261° |
| 2026-05-05 09:39 | 43.36441 | 8.57954 | 26972 ft | 265 kts | 262° |
| 2026-05-05 09:39 | 43.36284 | 8.55433 | 26969 ft | 265 kts | 262° |
| 2026-05-05 09:40 | 43.36120 | 8.52909 | 26969 ft | 265 kts | 262° |
| 2026-05-05 09:40 | 43.35955 | 8.50392 | 26969 ft | 265 kts | 262° |
| 2026-05-05 09:40 | 43.35790 | 8.47874 | 26969 ft | 264 kts | 262° |
| 2026-05-05 09:40 | 43.35626 | 8.45359 | 26968 ft | 264 kts | 262° |
| 2026-05-05 09:41 | 43.35462 | 8.42843 | 26973 ft | 264 kts | 261° |
| 2026-05-05 09:41 | 43.35294 | 8.40327 | 26971 ft | 264 kts | 261° |
| 2026-05-05 09:41 | 43.35127 | 8.37815 | 26971 ft | 264 kts | 261° |
| 2026-05-05 09:41 | 43.34960 | 8.35302 | 26971 ft | 264 kts | 261° |
| 2026-05-05 09:42 | 43.34793 | 8.32788 | 26970 ft | 265 kts | 261° |
| 2026-05-05 09:42 | 43.34626 | 8.30305 | 26967 ft | 264 kts | 261° |
| 2026-05-05 09:42 | 43.34458 | 8.27796 | 26971 ft | 264 kts | 261° |
| 2026-05-05 09:42 | 43.34289 | 8.25282 | 26972 ft | 264 kts | 261° |
| 2026-05-05 09:43 | 43.34119 | 8.22772 | 26969 ft | 264 kts | 261° |
| 2026-05-05 09:43 | 43.33949 | 8.20264 | 26968 ft | 264 kts | 261° |
| 2026-05-05 09:43 | 43.33780 | 8.17754 | 26951 ft | 264 kts | 261° |
| 2026-05-05 09:43 | 43.33608 | 8.15251 | 26951 ft | 263 kts | 261° |
| 2026-05-05 09:44 | 43.33436 | 8.12748 | 26954 ft | 263 kts | 261° |
| 2026-05-05 09:44 | 43.33264 | 8.10251 | 26954 ft | 262 kts | 261° |
| 2026-05-05 09:44 | 43.33093 | 8.07755 | 26954 ft | 262 kts | 261° |
| 2026-05-05 09:44 | 43.32921 | 8.05267 | 26954 ft | 262 kts | 261° |
| 2026-05-05 09:45 | 43.32748 | 8.02776 | 26954 ft | 262 kts | 261° |
| 2026-05-05 09:45 | 43.32575 | 8.00292 | 26955 ft | 261 kts | 261° |
| 2026-05-05 09:45 | 43.32401 | 7.97805 | 26954 ft | 261 kts | 261° |
| 2026-05-05 09:45 | 43.32227 | 7.95323 | 26970 ft | 261 kts | 260° |
| 2026-05-05 09:46 | 43.32053 | 7.92843 | 26966 ft | 261 kts | 260° |
| 2026-05-05 09:46 | 43.31879 | 7.90363 | 26957 ft | 261 kts | 260° |
| 2026-05-05 09:46 | 43.31689 | 7.87891 | 26953 ft | 260 kts | 260° |
| 2026-05-05 09:46 | 43.31523 | 7.85417 | 26955 ft | 260 kts | 261° |
| 2026-05-05 09:47 | 43.31367 | 7.82946 | 26960 ft | 259 kts | 261° |
| 2026-05-05 09:47 | 43.31188 | 7.80484 | 26961 ft | 259 kts | 260° |
| 2026-05-05 09:47 | 43.31003 | 7.78024 | 26962 ft | 259 kts | 260° |
| 2026-05-05 09:47 | 43.30822 | 7.75561 | 26962 ft | 259 kts | 260° |
| 2026-05-05 09:48 | 43.30646 | 7.73103 | 26960 ft | 259 kts | 260° |
| 2026-05-05 09:48 | 43.30471 | 7.70649 | 26960 ft | 259 kts | 260° |
| 2026-05-05 09:48 | 43.30293 | 7.68192 | 26958 ft | 259 kts | 260° |
| 2026-05-05 09:48 | 43.30116 | 7.65738 | 26960 ft | 258 kts | 260° |
| 2026-05-05 09:49 | 43.29938 | 7.63285 | 26956 ft | 258 kts | 260° |
| 2026-05-05 09:49 | 43.29756 | 7.60830 | 26956 ft | 258 kts | 260° |
| 2026-05-05 09:49 | 43.29576 | 7.58379 | 26975 ft | 258 kts | 260° |
| 2026-05-05 09:49 | 43.29397 | 7.55926 | 26964 ft | 258 kts | 260° |
| 2026-05-05 09:50 | 43.29215 | 7.53471 | 26967 ft | 258 kts | 260° |
| 2026-05-05 09:50 | 43.29037 | 7.51027 | 26967 ft | 258 kts | 260° |
| 2026-05-05 09:50 | 43.28857 | 7.48617 | 26967 ft | 257 kts | 260° |
| 2026-05-05 09:50 | 43.28675 | 7.46175 | 26966 ft | 257 kts | 260° |
| 2026-05-05 09:51 | 43.28493 | 7.43735 | 26966 ft | 257 kts | 260° |
| 2026-05-05 09:51 | 43.28311 | 7.41294 | 26966 ft | 257 kts | 260° |
| 2026-05-05 09:51 | 43.28130 | 7.38857 | 26966 ft | 257 kts | 260° |
| 2026-05-05 09:51 | 43.27944 | 7.36423 | 26966 ft | 257 kts | 259° |
| 2026-05-05 09:52 | 43.27758 | 7.33988 | 26963 ft | 257 kts | 259° |
| 2026-05-05 09:52 | 43.27575 | 7.31552 | 26960 ft | 256 kts | 260° |
| 2026-05-05 09:52 | 43.27392 | 7.29120 | 26960 ft | 256 kts | 259° |
| 2026-05-05 09:52 | 43.27206 | 7.26685 | 26959 ft | 256 kts | 259° |
| 2026-05-05 09:53 | 43.27021 | 7.24250 | 26964 ft | 256 kts | 259° |
| 2026-05-05 09:53 | 43.26835 | 7.21818 | 26964 ft | 256 kts | 259° |
| 2026-05-05 09:53 | 43.26648 | 7.19387 | 26964 ft | 256 kts | 259° |
| 2026-05-05 09:53 | 43.26461 | 7.16955 | 26964 ft | 256 kts | 259° |
| 2026-05-05 09:54 | 43.26274 | 7.14526 | 26963 ft | 256 kts | 259° |
| 2026-05-05 09:54 | 43.26085 | 7.12093 | 26961 ft | 256 kts | 259° |
| 2026-05-05 09:54 | 43.25896 | 7.09663 | 26961 ft | 256 kts | 259° |
| 2026-05-05 09:54 | 43.25707 | 7.07231 | 26961 ft | 257 kts | 259° |
| 2026-05-05 09:55 | 43.25517 | 7.04795 | 26959 ft | 257 kts | 259° |
| 2026-05-05 09:55 | 43.25326 | 7.02364 | 26959 ft | 257 kts | 259° |
| 2026-05-05 09:55 | 43.25136 | 6.99925 | 26959 ft | 257 kts | 259° |
| 2026-05-05 09:55 | 43.24944 | 6.97495 | 26961 ft | 257 kts | 259° |
| 2026-05-05 09:56 | 43.24752 | 6.95063 | 26963 ft | 257 kts | 259° |
| 2026-05-05 09:56 | 43.24560 | 6.92629 | 26962 ft | 257 kts | 259° |
| 2026-05-05 09:56 | 43.24367 | 6.90193 | 26962 ft | 257 kts | 259° |
| 2026-05-05 09:56 | 43.24173 | 6.87762 | 26962 ft | 256 kts | 259° |
| 2026-05-05 09:57 | 43.23981 | 6.85361 | 26962 ft | 256 kts | 259° |
| 2026-05-05 09:57 | 43.23784 | 6.82898 | 26963 ft | 257 kts | 259° |
| 2026-05-05 09:57 | 43.23591 | 6.80461 | 26964 ft | 257 kts | 259° |
| 2026-05-05 09:57 | 43.23394 | 6.78026 | 26963 ft | 257 kts | 259° |
| 2026-05-05 09:58 | 43.23198 | 6.75622 | 26963 ft | 257 kts | 259° |
| 2026-05-05 09:58 | 43.23004 | 6.73195 | 26949 ft | 256 kts | 259° |
| 2026-05-05 09:58 | 43.22805 | 6.70768 | 26948 ft | 256 kts | 259° |
| 2026-05-05 09:58 | 43.22603 | 6.68290 | 26536 ft | 268 kts | 259° |
| 2026-05-05 09:59 | 43.22393 | 6.65699 | 26041 ft | 278 kts | 260° |
| 2026-05-05 09:59 | 43.22178 | 6.63048 | 25555 ft | 280 kts | 260° |
| 2026-05-05 09:59 | 43.21967 | 6.60393 | 25071 ft | 281 kts | 261° |
| 2026-05-05 09:59 | 43.21975 | 6.57688 | 24601 ft | 285 kts | 267° |
| 2026-05-05 10:00 | 43.22037 | 6.54971 | 24142 ft | 286 kts | 267° |
| 2026-05-05 10:00 | 43.22076 | 6.52245 | 23685 ft | 286 kts | 266° |
| 2026-05-05 10:00 | 43.22114 | 6.49517 | 23162 ft | 287 kts | 267° |
| 2026-05-05 10:00 | 43.22168 | 6.46768 | 22627 ft | 289 kts | 267° |
| 2026-05-05 10:01 | 43.22199 | 6.44008 | 22108 ft | 289 kts | 266° |
| 2026-05-05 10:01 | 43.22234 | 6.41258 | 21587 ft | 288 kts | 267° |
| 2026-05-05 10:01 | 43.22278 | 6.38514 | 21076 ft | 288 kts | 267° |
| 2026-05-05 10:01 | 43.22319 | 6.35770 | 20569 ft | 288 kts | 267° |
| 2026-05-05 10:02 | 43.22358 | 6.33025 | 20073 ft | 288 kts | 267° |
| 2026-05-05 10:02 | 43.22397 | 6.30288 | 19582 ft | 287 kts | 267° |
| 2026-05-05 10:02 | 43.22431 | 6.27564 | 19101 ft | 285 kts | 267° |
| 2026-05-05 10:02 | 43.22468 | 6.24854 | 18629 ft | 284 kts | 267° |
| 2026-05-05 10:03 | 43.22505 | 6.22157 | 18151 ft | 283 kts | 267° |
| 2026-05-05 10:03 | 43.22538 | 6.19465 | 17612 ft | 282 kts | 266° |
| 2026-05-05 10:03 | 43.22570 | 6.16789 | 17087 ft | 280 kts | 266° |
| 2026-05-05 10:03 | 43.22604 | 6.14130 | 16572 ft | 279 kts | 267° |
| 2026-05-05 10:04 | 43.22636 | 6.11480 | 16061 ft | 277 kts | 267° |
| 2026-05-05 10:04 | 43.22650 | 6.09736 | 15726 ft | 276 kts | 266° |
| 2026-05-05 10:04 | 43.22672 | 6.07117 | 15246 ft | 274 kts | 267° |
| 2026-05-05 10:04 | 43.22696 | 6.04520 | 14755 ft | 271 kts | 267° |
| 2026-05-05 10:05 | 43.22747 | 6.01100 | 14088 ft | 271 kts | 270° |
| 2026-05-05 10:05 | 43.23003 | 5.98533 | 13567 ft | 271 kts | 275° |
| 2026-05-05 10:05 | 43.23274 | 5.95986 | 13014 ft | 269 kts | 274° |
| 2026-05-05 10:05 | 43.23439 | 5.94269 | 12646 ft | 268 kts | 274° |
| 2026-05-05 10:06 | 43.23677 | 5.91738 | 12104 ft | 267 kts | 274° |
| 2026-05-05 10:06 | 43.23925 | 5.89228 | 11575 ft | 265 kts | 274° |
| 2026-05-05 10:06 | 43.24174 | 5.86732 | 11054 ft | 263 kts | 274° |
| 2026-05-05 10:06 | 43.24415 | 5.84249 | 10542 ft | 262 kts | 274° |
| 2026-05-05 10:07 | 43.24655 | 5.81783 | 10039 ft | 260 kts | 275° |
| 2026-05-05 10:07 | 43.24891 | 5.79377 | 9512 ft | 254 kts | 275° |
| 2026-05-05 10:07 | 43.25131 | 5.77012 | 8964 ft | 247 kts | 275° |
| 2026-05-05 10:07 | 43.25345 | 5.74708 | 8420 ft | 241 kts | 275° |
| 2026-05-05 10:08 | 43.25558 | 5.72445 | 7885 ft | 237 kts | 275° |
| 2026-05-05 10:08 | 43.25780 | 5.70266 | 7369 ft | 222 kts | 276° |
| 2026-05-05 10:08 | 43.25980 | 5.68224 | 6849 ft | 210 kts | 275° |
| 2026-05-05 10:08 | 43.26157 | 5.66293 | 6340 ft | 200 kts | 276° |
| 2026-05-05 10:09 | 43.26332 | 5.64440 | 5799 ft | 193 kts | 276° |
| 2026-05-05 10:09 | 43.26503 | 5.62638 | 5269 ft | 188 kts | 276° |
| 2026-05-05 10:09 | 43.26668 | 5.60900 | 4967 ft | 177 kts | 275° |
| 2026-05-05 10:09 | 43.26896 | 5.59252 | 4954 ft | 178 kts | 291° |
| 2026-05-05 10:10 | 43.27693 | 5.57923 | 4952 ft | 190 kts | 319° |
| 2026-05-05 10:10 | 43.28974 | 5.57288 | 4952 ft | 204 kts | 353° |
| 2026-05-05 10:10 | 43.30361 | 5.57753 | 4950 ft | 212 kts | 28° |
| 2026-05-05 10:10 | 43.31417 | 5.59169 | 4951 ft | 216 kts | 56° |
| 2026-05-05 10:11 | 43.32010 | 5.61067 | 4947 ft | 218 kts | 77° |
| 2026-05-05 10:11 | 43.32081 | 5.63135 | 4948 ft | 217 kts | 96° |
| 2026-05-05 10:11 | 43.31946 | 5.65190 | 4950 ft | 215 kts | 95° |
| 2026-05-05 10:11 | 43.31847 | 5.67232 | 4953 ft | 214 kts | 95° |
| 2026-05-05 10:12 | 43.31739 | 5.69264 | 4953 ft | 213 kts | 95° |
| 2026-05-05 10:12 | 43.31632 | 5.71283 | 4942 ft | 211 kts | 95° |
| 2026-05-05 10:12 | 43.31535 | 5.73280 | 4951 ft | 209 kts | 95° |
| 2026-05-05 10:12 | 43.31423 | 5.75266 | 4952 ft | 208 kts | 96° |
| 2026-05-05 10:13 | 43.31316 | 5.77252 | 4956 ft | 209 kts | 95° |
| 2026-05-05 10:13 | 43.31213 | 5.79247 | 4951 ft | 210 kts | 95° |
| 2026-05-05 10:13 | 43.31109 | 5.81216 | 4951 ft | 209 kts | 95° |
| 2026-05-05 10:13 | 43.31003 | 5.83210 | 4953 ft | 210 kts | 95° |
| 2026-05-05 10:14 | 43.30895 | 5.85216 | 4952 ft | 211 kts | 95° |
| 2026-05-05 10:14 | 43.30786 | 5.87216 | 4955 ft | 210 kts | 95° |
| 2026-05-05 10:14 | 43.30676 | 5.89246 | 4957 ft | 210 kts | 95° |
| 2026-05-05 10:14 | 43.30578 | 5.91219 | 4953 ft | 209 kts | 95° |
| 2026-05-05 10:15 | 43.30489 | 5.93207 | 4958 ft | 209 kts | 95° |
| 2026-05-05 10:15 | 43.30343 | 5.95185 | 4952 ft | 207 kts | 106° |
| 2026-05-05 10:15 | 43.29736 | 5.96943 | 4955 ft | 201 kts | 128° |
| 2026-05-05 10:15 | 43.28803 | 5.98229 | 4957 ft | 180 kts | 147° |
| 2026-05-05 10:16 | 43.27716 | 5.98997 | 4958 ft | 173 kts | 165° |
| 2026-05-05 10:16 | 43.26554 | 5.99295 | 4960 ft | 170 kts | 177° |
| 2026-05-05 10:16 | 43.25368 | 5.99516 | 4879 ft | 174 kts | 175° |
| 2026-05-05 10:16 | 43.24169 | 5.99693 | 4660 ft | 172 kts | 185° |
| 2026-05-05 10:17 | 43.23039 | 5.99263 | 4391 ft | 168 kts | 210° |
| 2026-05-05 10:17 | 43.22150 | 5.98263 | 4130 ft | 166 kts | 233° |
| 2026-05-05 10:17 | 43.21644 | 5.96892 | 3945 ft | 158 kts | 255° |
| 2026-05-05 10:17 | 43.21479 | 5.95418 | 3794 ft | 157 kts | 262° |
| 2026-05-05 10:18 | 43.21323 | 5.93943 | 3650 ft | 156 kts | 261° |
| 2026-05-05 10:18 | 43.21169 | 5.92473 | 3524 ft | 156 kts | 262° |
| 2026-05-05 10:18 | 43.21101 | 5.90997 | 3385 ft | 158 kts | 277° |
| 2026-05-05 10:18 | 43.21489 | 5.89571 | 3163 ft | 160 kts | 292° |
| 2026-05-05 10:19 | 43.21908 | 5.88206 | 2927 ft | 147 kts | 291° |
| 2026-05-05 10:19 | 43.22274 | 5.86957 | 2712 ft | 138 kts | 290° |
| 2026-05-05 10:19 | 43.22616 | 5.85763 | 2512 ft | 132 kts | 290° |
| 2026-05-05 10:19 | 43.22911 | 5.84585 | 2364 ft | 130 kts | 281° |
| 2026-05-05 10:20 | 43.23118 | 5.83427 | 2152 ft | 118 kts | 284° |
| 2026-05-05 10:20 | 43.23327 | 5.82505 | 2029 ft | 96 kts | 285° |
| 2026-05-05 10:20 | 43.23569 | 5.81661 | 1884 ft | 93 kts | 294° |
| 2026-05-05 10:20 | 43.23925 | 5.80956 | 1760 ft | 88 kts | 300° |
| 2026-05-05 10:21 | 43.24293 | 5.80290 | 1636 ft | 86 kts | 303° |
| 2026-05-05 10:21 | 43.24646 | 5.79647 | 1493 ft | 84 kts | 300° |
| 2026-05-05 10:21 | 43.24988 | 5.79020 | 1402 ft | 75 kts | 302° |
| 2026-05-05 10:21 | 43.25245 | 5.78550 | 1401 ft | 43 kts | 307° |
| 2026-05-05 10:22 | 43.25364 | 5.78332 | 1400 ft | 18 kts | 309° |
| 2026-05-05 10:22 | 43.25416 | 5.78240 | 1400 ft | 9 kts | 308° |
| 2026-05-05 10:22 | 43.25428 | 5.78198 | 1405 ft | 5 kts | 250° |
| 2026-05-05 10:22 | 43.25394 | 5.78159 | 1405 ft | 7 kts | 217° |
| 2026-05-05 10:23 | 43.25375 | 5.78141 | 1402 ft | 0 kts | 204° |
| 2026-05-05 10:23 | 43.25373 | 5.78140 | 1402 ft | 2 kts | 182° |
| 2026-05-05 10:24 | 43.25343 | 5.78175 | 1405 ft | 7 kts | 129° |
| 2026-05-05 10:24 | 43.25310 | 5.78236 | 1407 ft | 10 kts | 126° |
| 2026-05-05 10:24 | 43.25276 | 5.78298 | 1410 ft | 10 kts | 125° |
| 2026-05-05 10:24 | 43.25229 | 5.78381 | 1402 ft | 8 kts | 140° |
| 2026-05-05 10:25 | 43.25183 | 5.78407 | 1408 ft | 11 kts | 133° |
| 2026-05-05 10:25 | 43.25138 | 5.78488 | 1402 ft | 8 kts | 127° |
| 2026-05-05 10:25 | 43.25099 | 5.78560 | 1405 ft | 10 kts | 128° |
| 2026-05-05 10:25 | 43.25068 | 5.78605 | 1402 ft | 3 kts | 129° |
| 2026-05-05 10:26 | 43.25049 | 5.78637 | 1402 ft | 0 kts | 130° |
| 2026-05-05 10:26 | 43.25030 | 5.78673 | 1406 ft | 7 kts | 128° |
| 2026-05-05 10:26 | 43.25047 | 5.78711 | 1406 ft | 3 kts | 29° |
| 2026-05-05 10:26 | 43.25059 | 5.78703 | 1402 ft | 2 kts | 308° |
| 2026-05-05 10:27 | 43.25065 | 5.78693 | 1402 ft | 0 kts | 307° |
| 2026-05-05 10:28 | 43.25064 | 5.78693 | 1402 ft | 0 kts | 307° |